Time;durP1;ratioP1;P1;durP2;ratioP2;P2;SDS_P1;SDS_P2;PMS_P1;PMS_P2;Temp;Humidity;BMP_temperature;BMP_pressure;BME280_temperature;BME280_humidity;BME280_pressure;Samples;Min_cycle;Max_cycle;Signal;HPM_P1;HPM_P2
2023/02/15 00:00:39;;;;;;;38.93;19.83;;;;;;;-0.93;100.00;99528.84;5054983;28;20585;-83
2023/02/15 00:03:05;;;;;;;38.00;20.47;;;;;;;-0.92;100.00;99527.97;5054973;28;20208;-83
2023/02/15 00:05:32;;;;;;;37.63;20.37;;;;;;;-0.95;100.00;99533.16;5054835;28;20212;-83
2023/02/15 00:08:00;;;;;;;34.13;19.50;;;;;;;-1.03;100.00;99522.81;5054747;28;20600;-84
2023/02/15 00:10:26;;;;;;;32.63;19.60;;;;;;;-1.02;100.00;99523.66;5054920;28;20219;-83
2023/02/15 00:12:53;;;;;;;41.90;22.30;;;;;;;-0.99;100.00;99523.66;5054745;28;20219;-84
2023/02/15 00:15:19;;;;;;;37.40;21.20;;;;;;;-1.01;100.00;99513.28;5054864;28;20212;-83
2023/02/15 00:17:46;;;;;;;37.93;20.50;;;;;;;-1.04;100.00;99508.06;5065897;23;20243;-80
2023/02/15 00:20:12;;;;;;;39.93;21.47;;;;;;;-0.95;100.00;99509.78;5054551;28;20212;-80
2023/02/15 00:22:39;;;;;;;37.23;21.67;;;;;;;-1.00;100.00;99503.78;5054707;28;20215;-80
2023/02/15 00:25:07;;;;;;;44.60;22.13;;;;;;;-1.08;100.00;99500.31;5054616;28;20265;-81
2023/02/15 00:27:34;;;;;;;39.70;20.23;;;;;;;-1.07;100.00;99508.09;5054133;28;20235;-80
2023/02/15 00:30:00;;;;;;;41.37;22.53;;;;;;;-0.90;100.00;99500.28;5054401;28;20255;-80
2023/02/15 00:32:27;;;;;;;39.10;22.27;;;;;;;-0.98;100.00;99507.22;5054329;28;20219;-80
2023/02/15 00:34:53;;;;;;;41.67;22.03;;;;;;;-1.06;100.00;99498.59;5054460;28;20235;-80
2023/02/15 00:37:20;;;;;;;37.37;21.80;;;;;;;-1.11;100.00;99489.97;5054041;28;20235;-80
2023/02/15 00:39:46;;;;;;;39.73;21.43;;;;;;;-1.19;100.00;99497.75;5054360;28;20200;-80
2023/02/15 00:42:14;;;;;;;33.77;19.40;;;;;;;-1.22;100.00;99502.91;5054092;28;20238;-81
2023/02/15 00:44:40;;;;;;;34.50;18.97;;;;;;;-1.29;100.00;99490.81;5058365;28;20230;-79
2023/02/15 00:47:07;;;;;;;37.23;21.67;;;;;;;-1.30;100.00;99504.66;5058598;28;20315;-81
2023/02/15 00:49:33;;;;;;;34.67;19.37;;;;;;;-1.39;100.00;99501.22;5058345;28;20236;-81
2023/02/15 00:52:00;;;;;;;37.97;21.03;;;;;;;-1.45;100.00;99503.81;5054060;28;20238;-81
2023/02/15 00:54:26;;;;;;;34.40;19.97;;;;;;;-1.46;100.00;99496.91;5053992;28;20207;-81
2023/02/15 00:56:53;;;;;;;37.37;20.37;;;;;;;-1.40;100.00;99502.97;5053524;28;20238;-81
2023/02/15 00:59:21;;;;;;;34.17;19.17;;;;;;;-1.40;100.00;99509.84;5053740;28;20210;-80
2023/02/15 01:01:47;;;;;;;34.80;19.53;;;;;;;-1.41;100.00;99503.78;5053760;28;20210;-81
2023/02/15 01:04:14;;;;;;;36.17;21.07;;;;;;;-1.41;100.00;99500.34;5053662;28;20215;-80
2023/02/15 01:06:40;;;;;;;39.20;20.83;;;;;;;-1.37;100.00;99487.38;5053374;28;20231;-81
2023/02/15 01:09:06;;;;;;;38.80;19.70;;;;;;;-1.37;100.00;99489.97;5053516;28;20232;-82
2023/02/15 01:11:33;;;;;;;43.83;22.13;;;;;;;-1.44;100.00;99490.84;5053535;28;20224;-81
2023/02/15 01:14:00;;;;;;;43.37;22.63;;;;;;;-1.49;100.00;99487.38;5053412;28;20704;-81
2023/02/15 01:16:29;;;;;;;53.17;25.67;;;;;;;-1.55;100.00;99492.56;5052769;28;20232;-80
2023/02/15 01:18:55;;;;;;;51.70;23.83;;;;;;;-1.59;100.00;99493.44;5053398;28;20215;-80
2023/02/15 01:21:24;;;;;;;62.53;28.30;;;;;;;-1.63;100.00;99493.44;5053270;28;20223;-80
2023/02/15 01:23:50;;;;;;;51.63;25.97;;;;;;;-1.62;100.00;99489.97;5053468;28;20214;-80
2023/02/15 01:26:17;;;;;;;57.73;25.70;;;;;;;-1.65;100.00;99501.19;5053022;28;20228;-81
2023/02/15 01:28:44;;;;;;;47.63;25.53;;;;;;;-1.65;100.00;99510.72;5053073;28;20228;-80
2023/02/15 01:31:13;;;;;;;49.37;22.57;;;;;;;-1.70;100.00;99504.66;5053091;28;20592;-80
2023/02/15 01:33:42;;;;;;;49.87;24.07;;;;;;;-1.66;100.00;99503.81;5053164;28;20215;-80
2023/02/15 01:36:08;;;;;;;47.47;24.70;;;;;;;-1.62;100.00;99500.34;5052685;28;20231;-80
2023/02/15 01:38:36;;;;;;;46.70;23.67;;;;;;;-1.59;100.00;99501.19;5052936;28;20208;-80
2023/02/15 01:41:22;;;;;;;41.27;23.10;;;;;;;-1.63;100.00;99493.44;5052989;28;20217;-80
2023/02/15 01:43:50;;;;;;;42.07;22.40;;;;;;;-1.64;100.00;99491.72;5052860;28;20666;-80
2023/02/15 01:46:19;;;;;;;38.47;20.33;;;;;;;-1.68;100.00;99484.78;5052720;28;20598;-79
2023/02/15 01:48:49;;;;;;;33.47;19.67;;;;;;;-1.67;100.00;99492.56;5052810;28;20228;-79
2023/02/15 01:51:18;;;;;;;31.47;18.83;;;;;;;-1.71;100.00;99489.97;5052776;28;20216;-79
2023/02/15 01:53:52;;;;;;;37.23;20.47;;;;;;;-1.71;100.00;99487.38;5052681;28;20252;-80
2023/02/15 01:56:21;;;;;;;27.97;17.00;;;;;;;-1.75;100.00;99483.06;5052336;28;20228;-80
2023/02/15 01:58:49;;;;;;;31.43;18.33;;;;;;;-1.77;100.00;99485.63;5052608;28;20586;-80
2023/02/15 02:01:16;;;;;;;29.90;17.47;;;;;;;-1.74;100.00;99480.47;5052010;28;20688;-80
2023/02/15 02:03:54;;;;;;;34.13;17.00;;;;;;;-1.79;100.00;99474.41;5052673;28;20204;-80
2023/02/15 02:06:21;;;;;;;31.40;18.00;;;;;;;-1.79;100.00;99476.16;5052145;28;20231;-81
2023/02/15 02:08:49;;;;;;;29.23;17.10;;;;;;;-1.82;100.00;99470.97;5052801;28;20251;-80
2023/02/15 02:11:16;;;;;;;29.27;17.03;;;;;;;-1.85;100.00;99477.00;5051691;28;20204;-80
2023/02/15 02:13:45;;;;;;;33.93;18.10;;;;;;;-1.88;100.00;99465.78;5052436;28;20216;-80
2023/02/15 02:16:17;;;;;;;34.53;18.10;;;;;;;-1.84;100.00;99467.53;5051941;28;20716;-80
2023/02/15 02:18:54;;;;;;;32.37;18.93;;;;;;;-1.86;100.00;99459.75;5052254;28;20201;-80
2023/02/15 02:21:43;;;;;;;36.03;19.60;;;;;;;-1.82;100.00;99458.00;5052462;28;20208;-80
2023/02/15 02:24:33;;;;;;;30.00;17.93;;;;;;;-1.82;100.00;99460.59;5052317;28;20211;-80
2023/02/15 02:27:25;;;;;;;36.00;18.70;;;;;;;-1.81;100.00;99475.28;5051993;28;20224;-80
2023/02/15 02:30:37;;;;;;;31.07;17.33;;;;;;;-1.78;100.00;99477.88;5052321;28;20235;-80
2023/02/15 02:33:26;;;;;;;36.47;21.10;;;;;;;-1.79;100.00;99469.25;5052058;28;20238;-81
2023/02/15 02:36:02;;;;;;;37.67;20.47;;;;;;;-1.74;100.00;99469.22;5052295;28;20212;-80
2023/02/15 02:38:39;;;;;;;36.77;20.60;;;;;;;-1.66;100.00;99467.53;5051871;28;20217;-80
2023/02/15 02:41:17;;;;;;;37.57;19.40;;;;;;;-1.64;100.00;99468.38;5052016;28;20554;-80
2023/02/15 02:43:52;;;;;;;35.50;22.10;;;;;;;-1.46;100.00;99468.38;5051781;28;20219;-81
2023/02/15 02:46:23;;;;;;;36.97;19.87;;;;;;;-1.49;100.00;99465.78;5051650;28;20235;-81
2023/02/15 02:48:51;;;;;;;35.50;19.37;;;;;;;-1.49;100.00;99465.78;5051923;28;20240;-81
2023/02/15 02:51:21;;;;;;;36.10;20.63;;;;;;;-1.45;100.00;99459.72;5051553;28;20678;-80
2023/02/15 02:53:52;;;;;;;43.33;22.07;;;;;;;-1.47;100.00;99464.91;5051744;28;20264;-81
2023/02/15 02:56:25;;;;;;;47.87;23.47;;;;;;;-1.10;100.00;99463.16;5051204;28;20228;-80
2023/02/15 02:59:00;;;;;;;42.80;23.33;;;;;;;-1.17;100.00;99458.84;5051581;28;20211;-80
2023/02/15 03:01:33;;;;;;;41.70;23.30;;;;;;;-1.31;100.00;99456.25;5051936;28;20227;-80
2023/02/15 03:04:05;;;;;;;40.47;21.80;;;;;;;-1.36;100.00;99462.31;5051700;28;20208;-81
2023/02/15 03:06:38;;;;;;;39.83;21.23;;;;;;;-1.41;100.00;99454.53;5051244;28;20234;-80
2023/02/15 03:09:14;;;;;;;42.23;22.00;;;;;;;-1.45;100.00;99457.13;5051456;28;20234;-81
2023/02/15 03:11:42;;;;;;;47.17;22.87;;;;;;;-1.49;100.00;99453.69;5051878;28;20269;-81
2023/02/15 03:14:09;;;;;;;38.00;22.47;;;;;;;-1.47;100.00;99449.34;5051579;28;20211;-80
2023/02/15 03:16:36;;;;;;;43.87;23.40;;;;;;;-1.49;100.00;99440.72;5051104;28;20242;-81
2023/02/15 03:19:08;;;;;;;43.10;21.43;;;;;;;-1.51;100.00;99439.88;5051306;28;20207;-80
2023/02/15 03:21:41;;;;;;;42.30;22.23;;;;;;;-1.54;100.00;99436.41;5050932;28;20212;-81
2023/02/15 03:24:11;;;;;;;45.07;21.00;;;;;;;-1.59;100.00;99448.50;5051500;28;20211;-81
2023/02/15 03:26:40;;;;;;;40.27;20.93;;;;;;;-1.67;100.00;99450.25;5051019;28;20231;-81
2023/02/15 03:29:08;;;;;;;39.30;21.17;;;;;;;-1.71;100.00;99453.69;5051189;28;20232;-80
2023/02/15 03:31:41;;;;;;;42.80;21.97;;;;;;;-1.79;100.00;99445.91;5051272;28;20210;-81
2023/02/15 03:34:12;;;;;;;48.10;23.07;;;;;;;-1.78;100.00;99441.63;5051540;28;20287;-80
2023/02/15 03:36:46;;;;;;;48.50;22.87;;;;;;;-1.79;100.00;99445.06;5051014;28;20233;-81
2023/02/15 03:39:19;;;;;;;51.87;23.70;;;;;;;-1.77;100.00;99448.53;5051425;28;20211;-80
2023/02/15 03:41:55;;;;;;;46.37;23.00;;;;;;;-1.73;100.00;99458.03;5051340;28;20211;-81
2023/02/15 03:44:27;;;;;;;46.73;23.13;;;;;;;-1.60;100.00;99458.00;5051057;28;20685;-81
2023/02/15 03:47:01;;;;;;;46.90;24.83;;;;;;;-1.54;100.00;99463.19;5051095;28;20234;-80
2023/02/15 03:49:34;;;;;;;49.27;23.60;;;;;;;-1.52;100.00;99461.47;5051017;28;20234;-81
2023/02/15 03:52:04;;;;;;;46.13;22.73;;;;;;;-1.56;100.00;99448.50;5051209;28;20229;-81
2023/02/15 03:54:43;;;;;;;45.13;22.43;;;;;;;-1.59;100.00;99458.88;5051354;28;20211;-81
2023/02/15 04:02:53;;;;;;;45.93;21.47;;;;;;;-1.79;100.00;99455.44;5052332;28;20234;-80
2023/02/15 04:05:21;;;;;;;47.37;22.83;;;;;;;-1.82;100.00;99455.41;5052144;28;20219;-80
2023/02/15 04:07:47;;;;;;;49.43;24.10;;;;;;;-1.81;100.00;99454.56;5051238;28;20232;-80
2023/02/15 04:12:58;;;;;;;51.70;23.77;;;;;;;-1.84;100.00;99452.81;5050913;28;20574;-81
2023/02/15 04:18:09;;;;;;;41.10;20.67;;;;;;;-1.77;100.00;99451.09;5050913;28;20826;-82
2023/02/15 04:26:05;;;;;;;45.37;21.87;;;;;;;-1.61;100.00;99445.06;5050546;28;20227;-80
2023/02/15 04:28:32;;;;;;;48.90;22.40;;;;;;;-1.62;100.00;99449.38;5050781;28;20235;-81
2023/02/15 04:30:58;;;;;;;42.70;22.80;;;;;;;-1.65;100.00;99445.94;5050575;28;20725;-82
2023/02/15 04:33:25;;;;;;;43.50;21.17;;;;;;;-1.68;100.00;99438.13;5051861;28;20218;-81
2023/02/15 04:35:53;;;;;;;53.50;22.10;;;;;;;-1.76;100.00;99434.69;5054247;28;20216;-81
2023/02/15 04:38:19;;;;;;;50.27;22.17;;;;;;;-1.78;100.00;99441.63;5053941;28;20704;-81
2023/02/15 04:40:50;;;;;;;49.27;23.00;;;;;;;-1.84;100.00;99439.03;5054115;28;20697;-81
2023/02/15 04:43:17;;;;;;;52.00;22.50;;;;;;;-1.88;100.00;99440.75;5054438;28;20212;-81
2023/02/15 04:45:49;;;;;;;48.53;23.10;;;;;;;-1.88;100.00;99434.69;5054152;28;20223;-80
2023/02/15 04:48:15;;;;;;;46.20;22.53;;;;;;;-1.82;100.00;99424.31;5053871;28;20200;-80
2023/02/15 04:50:42;;;;;;;47.47;22.10;;;;;;;-1.81;100.00;99431.22;5053980;28;20227;-81
2023/02/15 04:53:10;;;;;;;50.73;22.13;;;;;;;-1.83;100.00;99428.63;5053794;28;20215;-81
2023/02/15 04:55:37;;;;;;;42.80;22.27;;;;;;;-1.81;100.00;99420.88;5054312;28;20208;-81
2023/02/15 04:58:03;;;;;;;44.40;21.77;;;;;;;-1.85;100.00;99424.34;5053548;28;20232;-81
2023/02/15 05:00:30;;;;;;;44.53;23.13;;;;;;;-1.85;100.00;99419.16;5053995;28;20218;-81
2023/02/15 05:02:56;;;;;;;43.27;21.80;;;;;;;-1.89;100.00;99418.25;5053801;28;20205;-81
2023/02/15 05:05:22;;;;;;;42.07;20.57;;;;;;;-1.91;100.00;99413.97;5053769;28;20222;-81
2023/02/15 05:07:49;;;;;;;36.00;20.33;;;;;;;-1.92;100.00;99410.50;5053240;28;20231;-81
2023/02/15 05:10:17;;;;;;;34.57;18.60;;;;;;;-1.98;100.00;99422.56;5053903;28;20239;-81
2023/02/15 05:12:44;;;;;;;35.73;19.43;;;;;;;-1.88;100.00;99429.50;5053515;28;20313;-81
2023/02/15 05:15:10;;;;;;;26.40;17.67;;;;;;;-1.85;100.00;99435.53;5053649;28;20212;-80
2023/02/15 05:17:37;;;;;;;36.47;19.77;;;;;;;-1.86;100.00;99436.41;5053103;28;20631;-81
2023/02/15 05:20:04;;;;;;;32.20;17.03;;;;;;;-1.89;100.00;99435.56;5053473;28;20247;-81
2023/02/15 05:22:31;;;;;;;37.17;18.93;;;;;;;-1.92;100.00;99428.66;5053597;28;20215;-81
2023/02/15 05:30:27;;;;;;;35.80;19.97;;;;;;;-1.95;100.00;99427.78;5053314;28;20230;-81
2023/02/15 05:32:53;;;;;;;39.80;19.87;;;;;;;-1.96;100.00;99431.25;5053316;28;20210;-81
2023/02/15 05:35:20;;;;;;;36.70;20.00;;;;;;;-1.83;100.00;99438.16;5053373;28;20227;-81
2023/02/15 05:37:47;;;;;;;29.13;17.93;;;;;;;-1.88;100.00;99429.50;5053123;28;20242;-81
2023/02/15 05:40:13;;;;;;;36.57;18.20;;;;;;;-1.96;100.00;99437.25;5053132;28;20216;-81
2023/02/15 05:42:40;;;;;;;35.47;20.03;;;;;;;-2.00;100.00;99442.44;5052973;28;20214;-80
2023/02/15 05:45:08;;;;;;;33.00;17.00;;;;;;;-2.04;100.00;99440.72;5052982;28;20213;-80
2023/02/15 05:47:34;;;;;;;42.40;20.57;;;;;;;-2.05;100.00;99441.56;5052650;28;20245;-82
2023/02/15 05:50:01;;;;;;;34.47;19.30;;;;;;;-2.06;100.00;99429.50;5053068;28;20242;-80
2023/02/15 05:52:27;;;;;;;36.07;19.70;;;;;;;-2.10;100.00;99425.16;5053083;28;20212;-81
2023/02/15 05:54:54;;;;;;;33.80;18.30;;;;;;;-2.02;100.00;99426.06;5052987;28;20208;-80
2023/02/15 05:57:20;;;;;;;38.93;18.60;;;;;;;-2.00;100.00;99429.50;5052499;28;20228;-81
2023/02/15 05:59:47;;;;;;;29.37;16.97;;;;;;;-2.05;100.00;99431.22;5052646;28;20205;-81
2023/02/15 06:02:15;;;;;;;29.10;16.47;;;;;;;-2.11;100.00;99431.22;5052859;28;20696;-80
2023/02/15 06:04:41;;;;;;;30.07;16.57;;;;;;;-2.15;100.00;99429.50;5052900;28;20211;-81
2023/02/15 06:07:08;;;;;;;29.70;16.83;;;;;;;-2.18;100.00;99429.47;5052477;28;20238;-81
2023/02/15 06:09:34;;;;;;;25.90;16.20;;;;;;;-2.17;100.00;99436.38;5052536;28;20219;-82
2023/02/15 06:12:00;;;;;;;28.97;15.57;;;;;;;-2.24;100.00;99435.53;5052445;28;20216;-81
2023/02/15 06:14:27;;;;;;;25.50;15.63;;;;;;;-2.23;100.00;99439.84;5052492;28;20216;-81
2023/02/15 06:16:53;;;;;;;24.33;14.83;;;;;;;-2.24;100.00;99437.22;5064196;23;20235;-77
2023/02/15 06:19:22;;;;;;;29.73;16.37;;;;;;;-2.30;100.00;99437.22;5052229;28;20215;-78
2023/02/15 06:21:48;;;;;;;30.13;17.83;;;;;;;-2.29;100.00;99442.41;5052185;28;20203;-78
2023/02/15 06:24:15;;;;;;;27.67;15.70;;;;;;;-2.30;100.00;99448.47;5052077;28;20594;-78
2023/02/15 06:26:42;;;;;;;27.23;16.63;;;;;;;-2.26;100.00;99447.56;5051713;28;20239;-77
2023/02/15 06:29:08;;;;;;;24.10;15.70;;;;;;;-2.29;100.00;99447.59;5052169;28;20225;-77
2023/02/15 06:31:35;;;;;;;24.43;15.27;;;;;;;-2.34;100.00;99453.63;5051593;28;20238;-78
2023/02/15 06:34:01;;;;;;;26.30;15.60;;;;;;;-2.39;100.00;99456.19;5051511;28;20211;-78
2023/02/15 06:36:29;;;;;;;24.70;15.57;;;;;;;-2.41;100.00;99462.22;5051082;28;20208;-78
2023/02/15 06:38:56;;;;;;;26.60;16.43;;;;;;;-2.38;100.00;99468.25;5051281;28;20211;-78
2023/02/15 06:41:22;;;;;;;24.67;15.07;;;;;;;-2.39;100.00;99465.69;5051311;28;20576;-78
2023/02/15 06:43:49;;;;;;;25.83;14.53;;;;;;;-2.37;100.00;99470.03;5051681;28;20211;-78
2023/02/15 06:46:16;;;;;;;30.90;17.07;;;;;;;-2.32;100.00;99460.50;5051035;28;20215;-78
2023/02/15 06:48:42;;;;;;;29.00;16.17;;;;;;;-2.27;100.00;99460.53;5051371;28;20215;-78
2023/02/15 06:51:09;;;;;;;25.23;16.33;;;;;;;-2.23;100.00;99467.44;5051217;28;20254;-78
2023/02/15 06:53:36;;;;;;;32.53;17.60;;;;;;;-2.20;100.00;99462.28;5051065;28;20204;-78
2023/02/15 06:56:06;;;;;;;27.77;16.53;;;;;;;-2.15;100.00;99473.53;5051013;28;20219;-78
2023/02/15 06:58:32;;;;;;;22.73;14.53;;;;;;;-2.15;100.00;99465.75;5051072;28;20231;-78
2023/02/15 07:00:59;;;;;;;23.93;13.47;;;;;;;-2.15;100.00;99460.56;5051036;28;20214;-78
2023/02/15 07:03:25;;;;;;;22.47;15.10;;;;;;;-2.14;100.00;99459.72;5051207;28;20208;-78
2023/02/15 07:05:55;;;;;;;33.00;15.97;;;;;;;-2.19;100.00;99469.19;5050946;28;20540;-77
2023/02/15 07:08:22;;;;;;;20.50;13.33;;;;;;;-2.08;100.00;99477.84;5050624;28;20234;-77
2023/02/15 07:10:51;;;;;;;22.00;13.63;;;;;;;-2.08;100.00;99475.25;5051164;28;20599;-77
2023/02/15 07:13:16;;;;;;;18.93;12.33;;;;;;;-2.09;100.00;99473.53;5051140;28;20215;-77
2023/02/15 07:15:43;;;;;;;21.33;13.70;;;;;;;-2.11;100.00;99475.22;5050771;28;20218;-77
2023/02/15 07:18:10;;;;;;;22.17;13.47;;;;;;;-2.09;100.00;99491.66;5050277;28;20239;-77
2023/02/15 07:20:37;;;;;;;21.50;13.87;;;;;;;-2.08;100.00;99489.06;5050647;28;20216;-79
2023/02/15 07:23:04;;;;;;;23.73;14.00;;;;;;;-2.00;100.00;99492.53;5050189;28;20234;-76
2023/02/15 07:25:31;;;;;;;21.70;13.87;;;;;;;-2.04;100.00;99490.81;5050231;28;20293;-78
2023/02/15 07:27:59;;;;;;;22.13;13.17;;;;;;;-2.06;100.00;99481.28;5050488;28;20227;-77
2023/02/15 07:30:26;;;;;;;19.73;12.80;;;;;;;-2.03;100.00;99483.91;5050502;28;20700;-76
2023/02/15 07:35:47;;;;;;;25.80;14.97;;;;;;;-1.98;100.00;99480.44;5050610;28;20261;-76
2023/02/15 07:38:14;;;;;;;27.23;15.27;;;;;;;-1.95;100.00;99484.78;5050470;28;20229;-76
2023/02/15 07:40:40;;;;;;;21.03;14.27;;;;;;;-1.89;100.00;99484.78;5050626;28;20207;-78
2023/02/15 07:43:08;;;;;;;51.37;18.07;;;;;;;-1.89;100.00;99479.59;5050711;28;20214;-76
2023/02/15 07:45:34;;;;;;;25.53;15.07;;;;;;;-1.86;100.00;99470.09;5050730;28;20653;-77
2023/02/15 07:48:01;;;;;;;27.90;16.00;;;;;;;-1.77;100.00;99464.06;5050020;28;20232;-77
2023/02/15 07:50:28;;;;;;;26.33;15.73;;;;;;;-1.68;100.00;99464.94;5050606;28;20642;-76
2023/02/15 07:52:54;;;;;;;28.10;15.33;;;;;;;-1.65;100.00;99471.84;5050661;28;20321;-76
2023/02/15 07:55:21;;;;;;;20.87;13.60;;;;;;;-1.62;100.00;99462.34;5050328;28;20215;-76
2023/02/15 07:57:49;;;;;;;24.63;15.50;;;;;;;-1.54;100.00;99452.81;5050077;28;20609;-77
2023/02/15 08:00:19;;;;;;;23.27;14.10;;;;;;;-1.52;100.00;99455.41;5050459;28;20211;-76
2023/02/15 08:02:48;;;;;;;22.40;14.47;;;;;;;-1.50;100.00;99464.94;5050824;28;20212;-76
2023/02/15 08:05:16;;;;;;;22.77;14.37;;;;;;;-1.43;100.00;99458.00;5050653;28;20215;-78
2023/02/15 08:07:43;;;;;;;24.03;14.57;;;;;;;-1.41;100.00;99469.25;5050065;28;20259;-77
2023/02/15 08:11:24;;;;;;;22.33;15.30;;;;;;;-1.35;100.00;99485.63;5054145;28;20213;-77
2023/02/15 08:12:56;;;;;;;22.77;14.70;;;;;;;-1.25;100.00;99476.13;5053889;28;20223;-77
2023/02/15 08:15:24;;;;;;;31.73;16.53;;;;;;;-1.23;100.00;99480.44;5054337;28;20216;-77
2023/02/15 08:17:50;;;;;;;30.93;15.60;;;;;;;-1.21;100.00;99483.03;5051198;28;20250;-77
2023/02/15 08:20:17;;;;;;;27.07;16.07;;;;;;;-1.16;100.00;99481.31;5053427;28;20222;-77
2023/02/15 08:22:44;;;;;;;30.37;17.50;;;;;;;-1.04;100.00;99481.28;5053315;28;20235;-77
2023/02/15 08:25:10;;;;;;;30.83;16.53;;;;;;;-0.92;100.00;99483.84;5052587;28;20234;-77
2023/02/15 08:27:37;;;;;;;27.40;16.47;;;;;;;-0.82;100.00;99477.75;5048320;28;20227;-77
2023/02/15 08:30:04;;;;;;;25.27;15.60;;;;;;;-0.79;100.00;99477.75;5037530;28;20215;-78
2023/02/15 08:32:32;;;;;;;27.40;16.13;;;;;;;-0.76;100.00;99475.13;5033176;28;20603;-77
2023/02/15 08:34:58;;;;;;;26.33;16.30;;;;;;;-0.72;100.00;99474.28;5032876;28;20212;-78
2023/02/15 08:37:25;;;;;;;27.90;16.63;;;;;;;-0.72;100.00;99474.28;5032644;28;20228;-78
2023/02/15 08:39:52;;;;;;;33.10;19.07;;;;;;;-0.68;100.00;99465.63;5033081;28;20762;-77
2023/02/15 08:42:20;;;;;;;37.28;23.58;;;;;;;-0.59;100.00;99470.75;5032676;28;20429;-78
2023/02/15 08:44:46;;;;;;;33.03;20.17;;;;;;;-0.50;100.00;99470.72;5033904;28;20250;-78
2023/02/15 08:47:13;;;;;;;39.45;25.42;;;;;;;-0.43;100.00;99477.63;5032478;28;20441;-78
2023/02/15 08:49:41;;;;;;;37.27;22.03;;;;;;;-0.36;100.00;99466.31;5033609;28;20236;-78
2023/02/15 08:52:07;;;;;;;38.47;21.37;;;;;;;-0.28;100.00;99463.66;5033605;28;20236;-78
2023/02/15 08:54:34;;;;;;;39.80;20.50;;;;;;;-0.18;100.00;99468.84;5033398;28;20209;-77
2023/02/15 08:57:00;;;;;;;33.43;19.40;;;;;;;-0.10;100.00;99460.97;5032943;28;20233;-78
2023/02/15 08:59:27;;;;;;;31.73;19.10;;;;;;;-0.02;100.00;99461.81;5032503;28;20880;-77
2023/02/15 09:01:55;;;;;;;32.50;19.87;;;;;;;0.19;100.00;99455.59;5031665;28;20213;-78
2023/02/15 09:04:22;;;;;;;34.93;19.83;;;;;;;0.29;100.00;99458.13;5032451;28;20235;-79
2023/02/15 09:06:50;;;;;;;28.57;17.83;;;;;;;0.33;100.00;99452.00;5032061;28;20233;-79
2023/02/15 09:09:17;;;;;;;34.35;20.88;;;;;;;0.39;100.00;99446.75;5032525;28;20468;-78
2023/02/15 09:11:46;;;;;;;31.73;19.63;;;;;;;0.40;100.00;99447.63;5042713;28;20226;-78
2023/02/15 09:14:15;;;;;;;28.33;17.53;;;;;;;0.48;100.00;99451.00;5052107;28;20658;-78
2023/02/15 09:16:46;;;;;;;33.57;18.83;;;;;;;0.49;100.00;99451.00;5051915;28;20237;-81
2023/02/15 09:19:13;;;;;;;29.37;18.60;;;;;;;0.52;100.00;99456.19;5051617;28;21128;-77
2023/02/15 09:21:39;;;;;;;28.77;18.30;;;;;;;0.45;100.00;99453.66;5051694;28;20314;-79
2023/02/15 09:24:10;;;;;;;31.80;18.53;;;;;;;0.41;100.00;99450.22;5051971;28;20326;-80
2023/02/15 09:26:39;;;;;;;27.97;16.83;;;;;;;0.35;100.00;99447.66;5052197;28;20227;-79
2023/02/15 09:29:05;;;;;;;31.20;17.53;;;;;;;0.39;100.00;99446.75;5052095;28;20525;-78
2023/02/15 09:31:34;;;;;;;27.57;17.47;;;;;;;0.47;100.00;99438.88;5051578;28;20232;-78
2023/02/15 09:34:01;;;;;;;28.40;17.20;;;;;;;0.58;100.00;99437.06;5051997;28;20208;-78
2023/02/15 09:36:29;;;;;;;25.03;16.97;;;;;;;0.64;100.00;99445.69;5051328;28;20246;-78
2023/02/15 09:38:58;;;;;;;25.93;16.60;;;;;;;0.63;100.00;99438.72;5052226;28;20216;-79
2023/02/15 09:41:51;;;;;;;25.93;17.03;;;;;;;0.67;100.00;99440.44;5051587;28;20212;-78
2023/02/15 09:44:28;;;;;;;23.03;16.33;;;;;;;0.73;100.00;99435.16;5051572;28;20679;-78
2023/02/15 09:47:10;;;;;;;26.60;16.87;;;;;;;0.83;100.00;99429.00;5051009;28;20235;-78
2023/02/15 09:49:49;;;;;;;25.20;15.87;;;;;;;1.03;100.00;99424.44;5051632;28;20212;-80
2023/02/15 09:52:27;;;;;;;23.67;15.43;;;;;;;1.10;100.00;99425.25;5051367;28;20224;-78
2023/02/15 09:55:11;;;;;;;26.70;16.47;;;;;;;1.10;100.00;99425.25;5051511;28;20208;-78
2023/02/15 09:57:52;;;;;;;27.10;17.50;;;;;;;1.19;100.00;99419.94;5051114;28;20228;-80
2023/02/15 10:00:29;;;;;;;26.10;16.40;;;;;;;1.31;100.00;99418.06;5051161;28;20718;-79
2023/02/15 10:03:08;;;;;;;22.20;14.63;;;;;;;1.47;100.00;99424.78;5051359;28;20258;-78
2023/02/15 10:05:44;;;;;;;24.87;15.23;;;;;;;1.53;100.00;99416.03;5051175;28;20242;-76
2023/02/15 10:08:31;;;;;;;26.07;15.50;;;;;;;1.61;100.00;99427.22;5050873;28;20586;-84
2023/02/15 10:14:02;;;;;;;24.50;15.67;;;;;;;1.54;100.00;99413.38;5047173;28;20223;-80
2023/02/15 10:16:36;;;;;;;25.17;15.97;;;;;;;1.41;100.00;99411.81;5051075;28;20204;-79
2023/02/15 10:19:10;;;;;;;28.23;16.60;;;;;;;1.30;100.00;99408.47;5051118;28;20212;-77
2023/02/15 10:21:50;;;;;;;25.53;16.50;;;;;;;1.14;100.00;99412.19;5050797;28;20212;-80
2023/02/15 10:24:43;;;;;;;24.17;15.90;;;;;;;1.02;100.00;99416.66;5048295;28;20705;-77
2023/02/15 10:27:13;;;;;;;28.13;18.17;;;;;;;1.06;100.00;99416.59;5050809;28;20228;-77
2023/02/15 10:29:52;;;;;;;28.43;18.93;;;;;;;1.08;100.00;99416.56;5050904;28;20208;-77
2023/02/15 10:32:24;;;;;;;29.77;17.77;;;;;;;1.01;100.00;99408.00;5050195;28;20227;-78
2023/02/15 10:34:53;;;;;;;27.77;17.73;;;;;;;1.03;100.00;99406.22;5050556;28;20211;-77
2023/02/15 10:37:42;;;;;;;30.43;18.13;;;;;;;0.90;100.00;99409.84;5050469;28;20260;-77
2023/02/15 10:40:16;;;;;;;29.43;18.40;;;;;;;0.80;100.00;99400.41;5050564;28;20244;-77
2023/02/15 10:42:59;;;;;;;30.07;19.87;;;;;;;0.74;100.00;99399.63;5050584;28;20251;-77
2023/02/15 10:45:36;;;;;;;29.93;18.50;;;;;;;0.71;100.00;99387.50;5050881;28;20288;-78
2023/02/15 10:48:21;;;;;;;33.17;19.33;;;;;;;0.84;100.00;99396.91;5050601;28;20246;-78
2023/02/15 10:50:50;;;;;;;33.57;20.40;;;;;;;0.90;100.00;99386.44;5050596;28;20211;-77
2023/02/15 10:53:39;;;;;;;32.33;21.33;;;;;;;0.97;100.00;99389.81;5050671;28;20228;-77
2023/02/15 10:56:15;;;;;;;30.87;20.10;;;;;;;1.10;100.00;99379.25;5050686;28;20216;-78
2023/02/15 10:58:55;;;;;;;30.63;19.73;;;;;;;1.25;100.00;99384.28;5050705;28;20212;-77
2023/02/15 11:01:31;;;;;;;30.37;20.33;;;;;;;1.34;100.00;99373.72;5050402;28;20670;-77
2023/02/15 11:04:40;;;;;;;26.87;18.33;;;;;;;1.67;100.00;99365.44;5050400;28;20215;-77
2023/02/15 11:07:13;;;;;;;31.40;20.43;;;;;;;1.71;100.00;99364.50;5050174;28;20708;-79
2023/02/15 11:09:43;;;;;;;32.87;20.77;;;;;;;1.84;100.00;99363.44;5050408;28;20207;-77
2023/02/15 11:12:16;;;;;;;29.43;20.33;;;;;;;2.03;100.00;99357.03;5046442;28;20234;-78
2023/02/15 11:14:50;;;;;;;29.17;20.00;;;;;;;2.11;100.00;99359.53;5034123;28;20215;-80
2023/02/15 11:17:24;;;;;;;29.97;20.20;;;;;;;2.28;100.00;99350.53;5030425;28;20236;-77
2023/02/15 11:20:00;;;;;;;29.43;19.90;;;;;;;2.42;100.00;99353.78;5030329;28;20205;-77
2023/02/15 11:22:27;;;;;;;31.23;19.23;;;;;;;2.55;100.00;99352.69;5030692;28;20220;-77
2023/02/15 11:24:55;;;;;;;28.13;19.33;;;;;;;2.58;100.00;99350.00;5030165;28;20208;-77
2023/02/15 11:27:25;;;;;;;26.87;18.57;;;;;;;2.73;100.00;99341.91;5030215;28;20718;-78
2023/02/15 11:29:58;;;;;;;27.93;19.17;;;;;;;2.93;100.00;99339.75;5030521;28;20205;-78
2023/02/15 11:32:28;;;;;;;31.33;19.97;;;;;;;3.08;100.00;99333.38;5030552;28;20243;-78
2023/02/15 11:35:01;;;;;;;27.30;18.47;;;;;;;3.31;100.00;99328.53;5030436;28;20228;-78
2023/02/15 11:37:36;;;;;;;28.00;19.47;;;;;;;3.46;100.00;99329.06;5030155;28;20252;-78
2023/02/15 11:40:13;;;;;;;30.20;19.13;;;;;;;3.65;100.00;99327.75;5030401;28;20212;-78
2023/02/15 11:42:41;;;;;;;26.30;18.40;;;;;;;3.72;100.00;99334.53;5032035;28;20204;-79
2023/02/15 11:45:22;;;;;;;27.20;18.57;;;;;;;3.83;100.00;99326.44;5034938;28;20318;-78
2023/02/15 11:47:50;;;;;;;27.73;19.23;;;;;;;3.89;100.00;99332.41;5035277;28;20346;-84
2023/02/15 11:50:22;;;;;;;27.97;17.90;;;;;;;4.05;100.00;99311.97;5035355;28;20220;-85
2023/02/15 11:52:49;;;;;;;27.17;17.60;;;;;;;4.11;100.00;99302.22;5034978;28;20286;-78